Time;durP1;ratioP1;P1;durP2;ratioP2;P2;SDS_P1;SDS_P2;PMS_P1;PMS_P2;Temp;Humidity;BMP_temperature;BMP_pressure;BME280_temperature;BME280_humidity;BME280_pressure;Samples;Min_cycle;Max_cycle;Signal;HPM_P1;HPM_P2
2023/05/11 00:02:42;;;;;;;;;;;10.65;45.25;;;;;;2672727;76;20301;-92
2023/05/11 00:06:12;;;;;;;;;;;10.66;44.98;;;;;;2674269;76;20389;-91
2023/05/11 00:09:40;;;;;;;;;;;10.63;45.53;;;;;;2674579;76;20348;-93
2023/05/11 00:13:08;;;;;;;;;;;10.65;45.44;;;;;;2674114;76;20326;-93
2023/05/11 00:16:36;;;;;;;;;;;10.67;45.45;;;;;;2674573;76;20340;-92
2023/05/11 00:20:05;;;;;;;;;;;10.67;45.36;;;;;;2674189;76;20752;-92
2023/05/11 00:23:33;;;;;;;;;;;10.75;45.31;;;;;;2674216;76;20338;-92
2023/05/11 00:27:01;;;;;;;;;;;10.65;45.11;;;;;;2674195;76;20355;-93
2023/05/11 00:30:29;;;;;;;;;;;10.77;45.38;;;;;;2675157;76;20674;-92
2023/05/11 00:33:57;;;;;;;;;;;10.65;45.09;;;;;;2673697;76;20313;-93
2023/05/11 00:37:25;;;;;;;;;;;10.69;45.36;;;;;;2673803;76;20312;-92
2023/05/11 00:40:54;;;;;;;;;;;10.67;45.19;;;;;;2673958;76;20353;-92
2023/05/11 00:44:22;;;;;;;;;;;10.71;45.46;;;;;;2673495;76;20302;-93
2023/05/11 00:47:50;;;;;;;;;;;10.74;45.15;;;;;;2674241;76;20305;-92
2023/05/11 00:51:18;;;;;;;;;;;10.72;45.25;;;;;;2673744;76;20336;-92
2023/05/11 00:54:46;;;;;;;;;;;10.54;45.41;;;;;;2674281;76;20799;-93
2023/05/11 00:58:15;;;;;;;;;;;10.67;45.56;;;;;;2674395;76;20328;-92
2023/05/11 01:01:43;;;;;;;;;;;10.68;45.54;;;;;;2675257;76;20332;-92
2023/05/11 01:05:11;;;;;;;;;;;10.70;45.64;;;;;;2674675;76;20317;-93
2023/05/11 01:08:40;;;;;;;;;;;10.70;45.51;;;;;;2674334;76;20367;-93
2023/05/11 01:12:08;;;;;;;;;;;10.68;45.47;;;;;;2673856;76;20389;-93
2023/05/11 01:15:38;;;;;;;;;;;10.68;45.57;;;;;;2673420;76;20340;-93
2023/05/11 01:19:05;;;;;;;;;;;10.77;45.71;;;;;;2674001;76;20324;-92
2023/05/11 01:22:34;;;;;;;;;;;10.67;45.82;;;;;;2675721;76;20323;-94
2023/05/11 01:26:03;;;;;;;;;;;10.69;46.35;;;;;;2677059;76;20362;-93
2023/05/11 01:29:31;;;;;;;;;;;10.68;46.32;;;;;;2679633;76;20808;-93
2023/05/11 01:32:59;;;;;;;;;;;10.73;46.57;;;;;;2680507;76;20330;-93
2023/05/11 01:36:28;;;;;;;;;;;10.86;46.81;;;;;;2677403;76;20331;-94
2023/05/11 01:39:56;;;;;;;;;;;10.83;45.98;;;;;;2678028;76;20315;-93
2023/05/11 01:43:24;;;;;;;;;;;10.74;45.52;;;;;;2677903;76;20307;-93
2023/05/11 01:46:52;;;;;;;;;;;10.69;45.99;;;;;;2677591;76;20397;-93
2023/05/11 01:50:21;;;;;;;;;;;10.73;46.12;;;;;;2677429;76;20325;-93
2023/05/11 01:53:49;;;;;;;;;;;10.67;46.06;;;;;;2676649;76;20380;-93
2023/05/11 01:57:17;;;;;;;;;;;10.62;46.25;;;;;;2676592;76;20738;-93
2023/05/11 02:00:45;;;;;;;;;;;10.41;46.66;;;;;;2675521;76;20370;-93
2023/05/11 02:04:13;;;;;;;;;;;10.52;46.53;;;;;;2675975;76;20330;-93
2023/05/11 02:07:41;;;;;;;;;;;10.52;46.56;;;;;;2676762;76;20374;-93
2023/05/11 02:11:09;;;;;;;;;;;10.48;46.60;;;;;;2676700;76;20330;-92
2023/05/11 02:14:38;;;;;;;;;;;10.44;46.77;;;;;;2675748;76;20319;-93
2023/05/11 02:18:06;;;;;;;;;;;10.49;46.61;;;;;;2675581;76;20370;-92
2023/05/11 02:21:34;;;;;;;;;;;10.49;46.58;;;;;;2676044;76;20355;-92
2023/05/11 02:25:02;;;;;;;;;;;10.49;46.48;;;;;;2675961;76;20327;-93
2023/05/11 02:28:30;;;;;;;;;;;10.46;46.60;;;;;;2675483;76;20324;-93
2023/05/11 02:31:58;;;;;;;;;;;10.46;46.45;;;;;;2675711;76;20366;-93
2023/05/11 02:35:26;;;;;;;;;;;10.42;46.42;;;;;;2675298;76;20322;-93
2023/05/11 02:38:54;;;;;;;;;;;10.38;46.73;;;;;;2675150;76;20338;-93
2023/05/11 02:42:23;;;;;;;;;;;10.34;47.02;;;;;;2674930;76;20323;-93
2023/05/11 02:45:51;;;;;;;;;;;10.37;46.94;;;;;;2675643;76;20327;-93
2023/05/11 02:49:19;;;;;;;;;;;10.41;46.84;;;;;;2675372;76;20394;-92
2023/05/11 02:52:47;;;;;;;;;;;10.39;46.61;;;;;;2675457;76;20335;-92
2023/05/11 02:56:15;;;;;;;;;;;10.35;46.81;;;;;;2675276;76;20362;-92
2023/05/11 02:59:43;;;;;;;;;;;10.38;46.98;;;;;;2675364;76;20319;-93
2023/05/11 03:03:12;;;;;;;;;;;10.40;46.82;;;;;;2675085;76;20338;-93
2023/05/11 03:06:40;;;;;;;;;;;10.40;46.73;;;;;;2675462;76;20319;-92
2023/05/11 03:10:08;;;;;;;;;;;10.33;46.94;;;;;;2675064;76;20388;-93
2023/05/11 03:13:36;;;;;;;;;;;10.43;46.79;;;;;;2674909;76;20355;-93
2023/05/11 03:17:04;;;;;;;;;;;10.42;46.77;;;;;;2675218;76;20367;-92
2023/05/11 03:20:32;;;;;;;;;;;10.45;46.68;;;;;;2674618;76;20325;-93
2023/05/11 03:24:00;;;;;;;;;;;10.39;46.28;;;;;;2674930;76;20355;-93
2023/05/11 03:27:28;;;;;;;;;;;10.40;46.50;;;;;;2675312;76;20365;-92
2023/05/11 03:30:57;;;;;;;;;;;10.41;46.57;;;;;;2675483;76;20322;-92
2023/05/11 03:34:25;;;;;;;;;;;10.37;46.55;;;;;;2675340;76;20314;-93
2023/05/11 03:37:53;;;;;;;;;;;10.36;46.60;;;;;;2674896;76;20686;-93
2023/05/11 03:41:21;;;;;;;;;;;10.34;47.48;;;;;;2674729;76;20780;-93
2023/05/11 03:44:49;;;;;;;;;;;10.35;47.23;;;;;;2675648;76;20853;-93
2023/05/11 03:48:17;;;;;;;;;;;10.08;48.02;;;;;;2676201;76;20328;-93
2023/05/11 03:51:45;;;;;;;;;;;10.07;48.48;;;;;;2675637;76;20378;-94
2023/05/11 03:55:13;;;;;;;;;;;10.13;48.56;;;;;;2675967;76;20330;-93
2023/05/11 03:58:41;;;;;;;;;;;10.21;48.21;;;;;;2675451;76;20335;-93
2023/05/11 04:02:10;;;;;;;;;;;10.23;47.45;;;;;;2675221;76;20329;-93
2023/05/11 04:05:38;;;;;;;;;;;10.11;47.92;;;;;;2675667;76;20342;-93
2023/05/11 04:09:06;;;;;;;;;;;10.12;48.55;;;;;;2678827;76;20415;-93
2023/05/11 04:12:34;;;;;;;;;;;9.98;48.67;;;;;;2676014;76;20315;-93
2023/05/11 04:16:02;;;;;;;;;;;9.86;49.51;;;;;;2675586;76;20302;-92
2023/05/11 04:19:30;;;;;;;;;;;10.04;49.51;;;;;;2675220;76;20785;-92
2023/05/11 04:22:58;;;;;;;;;;;10.16;48.65;;;;;;2675809;76;20364;-93
2023/05/11 04:26:26;;;;;;;;;;;10.27;48.37;;;;;;2676012;76;20362;-93
2023/05/11 04:29:54;;;;;;;;;;;10.37;47.63;;;;;;2674614;76;20331;-93
2023/05/11 04:33:23;;;;;;;;;;;10.24;48.00;;;;;;2675200;76;20355;-93
2023/05/11 04:36:51;;;;;;;;;;;10.34;47.92;;;;;;2675638;76;20355;-93
2023/05/11 04:40:19;;;;;;;;;;;10.41;47.46;;;;;;2674993;76;20330;-94
2023/05/11 04:43:47;;;;;;;;;;;10.45;46.99;;;;;;2674907;76;20306;-93
2023/05/11 04:47:18;;;;;;;;;;;10.37;47.12;;;;;;2675207;76;20331;-92
2023/05/11 04:50:46;;;;;;;;;;;10.50;47.10;;;;;;2675015;76;20365;-93
2023/05/11 04:54:16;;;;;;;;;;;10.53;46.51;;;;;;2675010;76;20321;-93
2023/05/11 04:57:44;;;;;;;;;;;10.48;46.29;;;;;;2674944;76;20345;-92
2023/05/11 05:01:12;;;;;;;;;;;10.50;46.16;;;;;;2674790;76;20328;-92
2023/05/11 05:04:41;;;;;;;;;;;10.56;46.34;;;;;;2674535;76;20821;-92
2023/05/11 05:08:09;;;;;;;;;;;10.62;46.07;;;;;;2674472;76;20728;-94
2023/05/11 05:11:37;;;;;;;;;;;10.56;45.91;;;;;;2674185;76;20339;-92
2023/05/11 05:15:05;;;;;;;;;;;10.56;45.86;;;;;;2674723;76;20331;-92
2023/05/11 05:18:33;;;;;;;;;;;10.64;45.63;;;;;;2674981;76;20329;-92
2023/05/11 05:22:01;;;;;;;;;;;10.62;45.18;;;;;;2674817;76;20364;-91
2023/05/11 05:25:29;;;;;;;;;;;10.59;44.94;;;;;;2674556;76;20356;-92
2023/05/11 05:28:57;;;;;;;;;;;10.62;45.01;;;;;;2674271;76;20337;-92
2023/05/11 05:32:26;;;;;;;;;;;10.52;44.96;;;;;;2674482;76;20359;-92
2023/05/11 05:35:54;;;;;;;;;;;10.58;45.25;;;;;;2674214;76;20361;-93
2023/05/11 05:39:24;;;;;;;;;;;10.72;45.05;;;;;;2672374;76;20413;-90
2023/05/11 05:42:52;;;;;;;;;;;10.79;44.61;;;;;;2672934;76;20360;-90
2023/05/11 05:46:20;;;;;;;;;;;10.81;43.87;;;;;;2673614;76;20381;-90
2023/05/11 05:49:48;;;;;;;;;;;10.88;43.22;;;;;;2673740;76;20366;-90
2023/05/11 05:53:16;;;;;;;;;;;10.95;43.23;;;;;;2673126;76;20352;-90
2023/05/11 05:56:44;;;;;;;;;;;11.15;43.21;;;;;;2678305;76;20356;-90
2023/05/11 06:00:12;;;;;;;;;;;11.26;42.27;;;;;;2674500;76;20327;-90
2023/05/11 06:03:41;;;;;;;;;;;11.34;41.88;;;;;;2673323;76;20335;-89
2023/05/11 06:07:09;;;;;;;;;;;11.36;41.50;;;;;;2673259;76;20329;-90
2023/05/11 06:10:37;;;;;;;;;;;11.23;41.10;;;;;;2672611;76;20319;-90
2023/05/11 06:14:05;;;;;;;;;;;11.34;41.81;;;;;;2673626;76;20321;-90
2023/05/11 06:21:26;;;;;;;;;;;11.48;41.67;;;;;;2669357;76;20383;-90
2023/05/11 06:24:54;;;;;;;;;;;11.38;40.49;;;;;;2671217;76;20418;-90
2023/05/11 06:28:23;;;;;;;;;;;11.37;40.84;;;;;;2671844;76;20880;-90
2023/05/11 06:31:53;;;;;;;;;;;11.36;41.39;;;;;;2672652;76;20345;-90
2023/05/11 06:35:21;;;;;;;;;;;11.41;41.28;;;;;;2672393;76;20800;-90
2023/05/11 06:38:49;;;;;;;;;;;11.46;41.05;;;;;;2672937;76;20349;-90
2023/05/11 06:42:17;;;;;;;;;;;11.52;40.47;;;;;;2673106;76;20323;-90
2023/05/11 06:45:45;;;;;;;;;;;11.62;40.68;;;;;;2673396;76;20343;-90
2023/05/11 06:49:13;;;;;;;;;;;11.40;40.43;;;;;;2673353;76;20382;-90
2023/05/11 06:52:44;;;;;;;;;;;11.66;40.78;;;;;;2673297;76;20327;-90
2023/05/11 06:56:12;;;;;;;;;;;11.63;40.47;;;;;;2672793;76;20404;-91
2023/05/11 06:59:40;;;;;;;;;;;11.51;40.50;;;;;;2672480;76;20357;-91
2023/05/11 07:03:08;;;;;;;;;;;11.36;40.71;;;;;;2672471;76;20339;-91
2023/05/11 07:06:36;;;;;;;;;;;11.39;41.42;;;;;;2673236;76;20857;-91
2023/05/11 07:10:04;;;;;;;;;;;11.25;41.23;;;;;;2672900;76;20794;-91
2023/05/11 07:13:35;;;;;;;;;;;11.19;41.42;;;;;;2672878;76;20363;-90
2023/05/11 07:17:02;;;;;;;;;;;11.33;41.49;;;;;;2672554;76;20360;-90
2023/05/11 07:20:31;;;;;;;;;;;11.55;41.39;;;;;;2673770;76;20363;-90
2023/05/11 07:23:59;;;;;;;;;;;11.81;41.29;;;;;;2673698;76;20870;-90
2023/05/11 07:27:27;;;;;;;;;;;12.02;41.61;;;;;;2673757;76;20780;-91
2023/05/11 07:30:56;;;;;;;;;;;12.08;41.47;;;;;;2673436;76;20826;-90
2023/05/11 07:34:24;;;;;;;;;;;11.99;39.88;;;;;;2673760;76;20357;-90
2023/05/11 07:37:52;;;;;;;;;;;11.97;40.33;;;;;;2673447;76;20355;-91
2023/05/11 07:41:21;;;;;;;;;;;12.07;40.52;;;;;;2673948;76;20355;-90
2023/05/11 07:44:49;;;;;;;;;;;12.21;39.49;;;;;;2673670;76;20358;-91
2023/05/11 07:48:18;;;;;;;;;;;12.49;39.20;;;;;;2673690;76;20362;-90
2023/05/11 07:51:46;;;;;;;;;;;12.58;36.60;;;;;;2673861;76;20365;-91
2023/05/11 07:55:14;;;;;;;;;;;12.84;36.88;;;;;;2674093;76;20330;-91
2023/05/11 07:58:42;;;;;;;;;;;13.06;36.03;;;;;;2673745;76;20360;-91
2023/05/11 08:02:11;;;;;;;;;;;13.29;35.24;;;;;;2673456;76;20356;-91
2023/05/11 08:05:39;;;;;;;;;;;13.47;34.82;;;;;;2673316;76;20358;-91
2023/05/11 08:09:07;;;;;;;;;;;13.26;32.93;;;;;;2673720;76;20377;-90
2023/05/11 08:12:35;;;;;;;;;;;13.27;34.34;;;;;;2673883;76;20371;-91
2023/05/11 08:16:03;;;;;;;;;;;13.23;33.92;;;;;;2673522;76;20371;-91
2023/05/11 08:19:32;;;;;;;;;;;13.33;33.85;;;;;;2673317;76;20328;-91
2023/05/11 08:23:05;;;;;;;;;;;13.67;34.29;;;;;;2673588;76;20358;-91
2023/05/11 08:26:30;;;;;;;;;;;13.85;33.24;;;;;;2672860;76;20371;-90
2023/05/11 08:29:58;;;;;;;;;;;14.05;32.76;;;;;;2673667;76;20334;-91
2023/05/11 08:33:26;;;;;;;;;;;13.68;30.38;;;;;;2673393;76;20346;-91
2023/05/11 08:36:54;;;;;;;;;;;13.83;31.70;;;;;;2673224;76;20371;-91
2023/05/11 08:40:23;;;;;;;;;;;13.92;32.37;;;;;;2673559;76;20806;-91
2023/05/11 08:43:51;;;;;;;;;;;13.91;31.99;;;;;;2673867;76;20359;-91
2023/05/11 08:47:19;;;;;;;;;;;13.97;31.99;;;;;;2673130;76;20390;-91
2023/05/11 08:50:47;;;;;;;;;;;13.74;30.58;;;;;;2673430;76;20368;-91
2023/05/11 08:54:24;;;;;;;;;;;13.35;30.48;;;;;;2673699;76;20381;-90
2023/05/11 08:57:45;;;;;;;;;;;13.33;30.74;;;;;;2673792;76;20343;-91
2023/05/11 09:01:13;;;;;;;;;;;13.37;31.49;;;;;;2673358;76;20778;-90
2023/05/11 09:04:42;;;;;;;;;;;13.65;32.19;;;;;;2673802;76;20360;-90
2023/05/11 09:08:10;;;;;;;;;;;13.70;30.51;;;;;;2673744;76;20326;-90
2023/05/11 09:11:38;;;;;;;;;;;13.76;29.75;;;;;;2673486;76;20358;-90
2023/05/11 09:15:06;;;;;;;;;;;14.10;29.35;;;;;;2673159;76;20331;-91
2023/05/11 09:18:34;;;;;;;;;;;14.25;29.09;;;;;;2673522;76;20788;-90
2023/05/11 09:22:02;;;;;;;;;;;14.24;28.43;;;;;;2673275;76;20691;-90
2023/05/11 09:25:31;;;;;;;;;;;14.06;27.53;;;;;;2672544;76;20350;-90
2023/05/11 09:28:59;;;;;;;;;;;14.33;28.18;;;;;;2673305;76;20911;-90
2023/05/11 09:32:28;;;;;;;;;;;14.40;28.09;;;;;;2673350;76;20332;-91
2023/05/11 09:35:58;;;;;;;;;;;14.75;28.32;;;;;;2673312;76;20340;-90
2023/05/11 09:39:26;;;;;;;;;;;14.44;26.97;;;;;;2671904;76;20331;-90
2023/05/11 09:42:54;;;;;;;;;;;13.97;27.09;;;;;;2673722;76;20352;-91
2023/05/11 09:46:22;;;;;;;;;;;14.19;28.20;;;;;;2675678;76;20322;-90
2023/05/11 09:49:51;;;;;;;;;;;14.11;28.05;;;;;;2673199;76;20389;-91
2023/05/11 09:53:19;;;;;;;;;;;14.06;27.76;;;;;;2673455;76;20340;-90
2023/05/11 09:56:47;;;;;;;;;;;14.22;28.90;;;;;;2673359;76;20870;-89
2023/05/11 10:00:15;;;;;;;;;;;14.25;28.28;;;;;;2673541;76;20338;-89
2023/05/11 10:03:43;;;;;;;;;;;14.32;28.09;;;;;;2673342;76;20346;-90
2023/05/11 10:07:16;;;;;;;;;;;14.49;28.61;;;;;;2673043;76;20342;-89
2023/05/11 10:10:41;;;;;;;;;;;14.36;27.36;;;;;;2672745;76;20358;-89
2023/05/11 10:14:10;;;;;;;;;;;14.19;27.18;;;;;;2673271;76;20389;-89
2023/05/11 10:17:43;;;;;;;;;;;14.06;28.03;;;;;;2672908;76;20408;-89
2023/05/11 10:21:08;;;;;;;;;;;13.92;28.93;;;;;;2672839;76;20363;-90
2023/05/11 10:24:36;;;;;;;;;;;13.89;30.19;;;;;;2673009;76;20380;-90
2023/05/11 10:28:05;;;;;;;;;;;13.83;30.39;;;;;;2673042;76;20342;-90
2023/05/11 10:31:33;;;;;;;;;;;13.66;30.40;;;;;;2672986;76;20752;-89
2023/05/11 10:35:01;;;;;;;;;;;13.62;30.77;;;;;;2672705;76;20954;-90
2023/05/11 10:38:29;;;;;;;;;;;13.59;31.16;;;;;;2672756;76;20890;-90
2023/05/11 10:42:00;;;;;;;;;;;13.41;29.74;;;;;;2672939;76;20361;-90
2023/05/11 10:45:27;;;;;;;;;;;13.47;30.84;;;;;;2673040;76;20344;-89
2023/05/11 10:48:55;;;;;;;;;;;13.88;31.98;;;;;;2672335;76;20341;-90
2023/05/11 10:52:23;;;;;;;;;;;13.96;30.02;;;;;;2672046;76;20383;-90
2023/05/11 10:55:51;;;;;;;;;;;14.15;29.96;;;;;;2673327;76;20749;-89
2023/05/11 10:59:21;;;;;;;;;;;14.42;30.38;;;;;;2673686;76;20409;-89
2023/05/11 11:02:49;;;;;;;;;;;14.40;29.74;;;;;;2673376;76;20796;-89
2023/05/11 11:06:17;;;;;;;;;;;14.50;29.71;;;;;;2673112;76;20351;-90
2023/05/11 11:09:45;;;;;;;;;;;14.43;28.06;;;;;;2673315;76;20330;-89
2023/05/11 11:13:13;;;;;;;;;;;14.41;27.42;;;;;;2673312;76;20347;-90
2023/05/11 11:16:41;;;;;;;;;;;14.49;27.81;;;;;;2673880;76;20371;-89
2023/05/11 11:20:09;;;;;;;;;;;14.48;27.58;;;;;;2672882;76;20379;-90
2023/05/11 11:23:38;;;;;;;;;;;14.74;27.58;;;;;;2673089;76;20690;-90
2023/05/11 11:27:07;;;;;;;;;;;15.12;28.55;;;;;;2673647;76;20778;-89
2023/05/11 11:30:35;;;;;;;;;;;15.37;28.22;;;;;;2673335;76;20309;-89
2023/05/11 11:34:03;;;;;;;;;;;15.65;28.45;;;;;;2673815;76;20331;-90
2023/05/11 11:37:31;;;;;;;;;;;15.84;28.10;;;;;;2672977;76;20346;-90
2023/05/11 11:40:59;;;;;;;;;;;15.91;27.73;;;;;;2673237;76;20379;-90
2023/05/11 11:44:27;;;;;;;;;;;15.67;27.07;;;;;;2673802;76;20306;-90
2023/05/11 11:47:58;;;;;;;;;;;15.63;27.81;;;;;;2673530;76;20746;-90
2023/05/11 11:51:26;;;;;;;;;;;15.74;27.74;;;;;;2673207;76;20372;-90
2023/05/11 11:54:55;;;;;;;;;;;15.69;27.39;;;;;;2673899;76;20306;-90
2023/05/11 11:58:23;;;;;;;;;;;15.66;27.39;;;;;;2673402;76;20767;-90
2023/05/11 12:01:51;;;;;;;;;;;15.65;27.41;;;;;;2673529;76;20767;-90
2023/05/11 12:05:24;;;;;;;;;;;15.45;26.90;;;;;;2673511;76;20326;-89
2023/05/11 12:08:50;;;;;;;;;;;15.27;26.99;;;;;;2672989;76;20353;-89
2023/05/11 12:12:18;;;;;;;;;;;15.10;28.17;;;;;;2673120;76;20319;-89
2023/05/11 12:15:46;;;;;;;;;;;14.92;28.88;;;;;;2673230;76;20819;-88
2023/05/11 12:19:15;;;;;;;;;;;14.83;28.51;;;;;;2673273;76;20774;-89
2023/05/11 12:22:47;;;;;;;;;;;14.85;29.27;;;;;;2674307;76;20312;-89
2023/05/11 12:26:15;;;;;;;;;;;14.71;28.49;;;;;;2674151;76;20322;-89
2023/05/11 12:29:44;;;;;;;;;;;14.62;29.63;;;;;;2673920;76;20305;-89
2023/05/11 12:33:12;;;;;;;;;;;14.33;28.18;;;;;;2674209;76;20319;-88
2023/05/11 12:36:41;;;;;;;;;;;14.42;29.43;;;;;;2673754;76;20359;-90
2023/05/11 12:40:09;;;;;;;;;;;14.56;30.28;;;;;;2675170;76;20865;-91
2023/05/11 12:43:37;;;;;;;;;;;14.48;29.82;;;;;;2674710;76;20857;-91
2023/05/11 12:47:05;;;;;;;;;;;14.24;30.23;;;;;;2674663;76;20347;-91
2023/05/11 12:50:33;;;;;;;;;;;14.18;31.03;;;;;;2674999;76;20319;-92
2023/05/11 12:54:01;;;;;;;;;;;13.81;28.84;;;;;;2675008;76;20385;-92
2023/05/11 12:57:30;;;;;;;;;;;13.78;30.26;;;;;;2675199;76;20322;-92
2023/05/11 13:00:58;;;;;;;;;;;13.22;30.71;;;;;;2674824;76;20782;-91
2023/05/11 13:04:26;;;;;;;;;;;13.33;31.21;;;;;;2674896;76;20803;-91
2023/05/11 13:07:54;;;;;;;;;;;13.58;32.59;;;;;;2675622;76;20319;-92
2023/05/11 13:11:24;;;;;;;;;;;13.48;31.71;;;;;;2675175;76;20320;-92
2023/05/11 13:14:52;;;;;;;;;;;13.37;31.25;;;;;;2676926;76;20326;-94
2023/05/11 13:18:20;;;;;;;;;;;13.34;31.93;;;;;;2677503;76;20371;-93
2023/05/11 13:21:48;;;;;;;;;;;13.44;32.05;;;;;;2675870;76;20337;-93
2023/05/11 13:25:16;;;;;;;;;;;13.39;31.86;;;;;;2674693;76;20318;-93
2023/05/11 13:28:45;;;;;;;;;;;13.71;33.28;;;;;;2676990;76;22550;-93
2023/05/11 13:32:18;;;;;;;;;;;13.94;33.53;;;;;;2674731;76;20314;-93
2023/05/11 13:35:47;;;;;;;;;;;14.14;33.35;;;;;;2678256;76;20380;-93
2023/05/11 13:39:15;;;;;;;;;;;14.25;33.11;;;;;;2674983;76;20368;-92
2023/05/11 13:42:43;;;;;;;;;;;14.30;33.81;;;;;;2674704;76;20372;-93
2023/05/11 13:46:22;;;;;;;;;;;14.35;33.31;;;;;;2673513;76;20366;-93
2023/05/11 13:49:53;;;;;;;;;;;14.34;33.24;;;;;;2674608;76;20312;-93
2023/05/11 13:53:22;;;;;;;;;;;14.36;33.35;;;;;;2674029;76;20341;-94
2023/05/11 13:56:54;;;;;;;;;;;14.24;32.55;;;;;;2677677;76;20277;-95
2023/05/11 14:00:41;;;;;;;;;;;;;;;;;;;;;
2023/05/11 14:08:07;;;;;;;;;;;;;;;;;;;;;
2023/05/11 14:11:33;;;;;;;;;;;13.90;32.34;;;;;;2678556;76;20364;-94
2023/05/11 14:15:05;;;;;;;;;;;14.05;33.74;;;;;;2673001;76;20364;-91
2023/05/11 14:18:33;;;;;;;;;;;14.09;34.33;;;;;;2671084;76;20353;-91
2023/05/11 14:22:03;;;;;;;;;;;14.13;33.84;;;;;;2672853;76;20352;-91
2023/05/11 14:25:31;;;;;;;;;;;14.29;35.37;;;;;;2672766;76;20322;-91
2023/05/11 14:29:02;;;;;;;;;;;14.34;35.02;;;;;;2673818;76;20384;-92
2023/05/11 14:32:30;;;;;;;;;;;14.45;35.91;;;;;;2673010;76;20768;-91
2023/05/11 14:36:14;;;;;;;;;;;;;;;;;;;;;
2023/05/11 14:39:50;;;;;;;;;;;;;;;;;;;;;
2023/05/11 14:43:10;;;;;;;;;;;14.34;36.50;;;;;;2676595;76;20768;-94
2023/05/11 14:46:49;;;;;;;;;;;14.22;36.76;;;;;;2676426;76;20450;-94
2023/05/11 14:50:28;;;;;;;;;;;14.06;37.32;;;;;;2675899;76;20430;-95
2023/05/11 14:53:59;;;;;;;;;;;13.83;37.24;;;;;;2674681;76;20343;-93
2023/05/11 14:57:33;;;;;;;;;;;13.47;36.14;;;;;;2674887;76;20338;-93
2023/05/11 15:01:08;;;;;;;;;;;;;;;;;;;;;
2023/05/11 15:04:33;;;;;;;;;;;12.96;36.88;;;;;;2673092;76;20320;-93
2023/05/11 15:08:12;;;;;;;;;;;13.00;39.71;;;;;;2672762;76;20350;-93
2023/05/11 15:11:44;;;;;;;;;;;13.02;39.86;;;;;;2674541;76;20755;-92
2023/05/11 15:15:14;;;;;;;;;;;13.06;40.14;;;;;;2673635;76;20331;-92
2023/05/11 15:18:42;;;;;;;;;;;12.93;37.79;;;;;;2675969;76;20397;-92
2023/05/11 15:22:10;;;;;;;;;;;12.84;37.70;;;;;;2672915;76;20370;-93
2023/05/11 15:25:43;;;;;;;;;;;12.85;38.32;;;;;;2672253;76;20817;-92
2023/05/11 15:29:15;;;;;;;;;;;12.94;40.53;;;;;;2673084;76;20380;-93
2023/05/11 15:32:43;;;;;;;;;;;13.09;40.75;;;;;;2674923;76;20323;-93
2023/05/11 15:36:11;;;;;;;;;;;13.21;41.07;;;;;;2675768;76;20356;-93
2023/05/11 15:39:39;;;;;;;;;;;13.25;39.16;;;;;;2675019;76;20370;-93
2023/05/11 15:43:08;;;;;;;;;;;13.16;39.20;;;;;;2674929;76;20372;-93
2023/05/11 15:46:36;;;;;;;;;;;13.19;40.95;;;;;;2673259;76;20386;-93
2023/05/11 15:50:04;;;;;;;;;;;13.17;40.53;;;;;;2674212;76;20322;-92
2023/05/11 15:53:32;;;;;;;;;;;13.15;40.46;;;;;;2674345;76;20309;-93
2023/05/11 15:57:00;;;;;;;;;;;13.14;41.11;;;;;;2673252;76;20306;-93
2023/05/11 16:00:31;;;;;;;;;;;13.16;41.16;;;;;;2673309;76;20349;-93
2023/05/11 16:04:00;;;;;;;;;;;13.15;41.03;;;;;;2674252;76;20688;-93
2023/05/11 16:07:31;;;;;;;;;;;13.15;41.07;;;;;;2674402;76;20365;-93
2023/05/11 16:10:59;;;;;;;;;;;13.18;40.80;;;;;;2674342;76;20374;-93
2023/05/11 16:14:27;;;;;;;;;;;13.24;41.25;;;;;;2673604;76;20382;-93
2023/05/11 16:17:55;;;;;;;;;;;13.34;41.38;;;;;;2674204;76;20338;-93
2023/05/11 16:21:23;;;;;;;;;;;13.39;40.80;;;;;;2673170;76;20332;-93
2023/05/11 16:24:51;;;;;;;;;;;13.45;40.60;;;;;;2674054;76;20320;-93
2023/05/11 16:28:19;;;;;;;;;;;13.49;40.45;;;;;;2674214;76;20316;-93
2023/05/11 16:31:47;;;;;;;;;;;13.49;40.19;;;;;;2674014;76;20323;-93
2023/05/11 16:35:15;;;;;;;;;;;13.48;40.33;;;;;;2674714;76;20321;-93
2023/05/11 16:38:44;;;;;;;;;;;13.52;40.20;;;;;;2674390;76;20331;-93
2023/05/11 16:42:15;;;;;;;;;;;13.62;40.18;;;;;;2674421;76;20362;-95
2023/05/11 16:45:43;;;;;;;;;;;13.70;40.23;;;;;;2673795;76;20332;-93
2023/05/11 16:49:11;;;;;;;;;;;13.79;40.29;;;;;;2674110;76;20340;-94
2023/05/11 16:52:39;;;;;;;;;;;13.73;40.01;;;;;;2673905;76;20391;-93
2023/05/11 16:56:08;;;;;;;;;;;13.70;40.31;;;;;;2674423;76;20338;-93
2023/05/11 16:59:36;;;;;;;;;;;13.51;39.45;;;;;;2674568;76;20320;-93
2023/05/11 17:03:04;;;;;;;;;;;13.36;40.41;;;;;;2673604;76;20339;-93
2023/05/11 17:06:32;;;;;;;;;;;13.29;41.49;;;;;;2674114;76;20776;-93
2023/05/11 17:10:06;;;;;;;;;;;13.22;41.26;;;;;;2674320;76;20362;-93
2023/05/11 17:13:30;;;;;;;;;;;13.11;41.20;;;;;;2673833;76;20374;-93
2023/05/11 17:16:58;;;;;;;;;;;13.12;42.23;;;;;;2673500;76;20384;-93
2023/05/11 17:20:27;;;;;;;;;;;13.19;41.94;;;;;;2673410;76;20368;-93
2023/05/11 17:23:56;;;;;;;;;;;13.07;39.63;;;;;;2672953;76;20324;-93
2023/05/11 17:27:24;;;;;;;;;;;12.95;38.94;;;;;;2674149;76;20380;-93
2023/05/11 17:30:52;;;;;;;;;;;12.84;39.10;;;;;;2674225;76;20380;-93
2023/05/11 17:34:20;;;;;;;;;;;12.79;39.45;;;;;;2671425;76;20373;-93
2023/05/11 17:37:51;;;;;;;;;;;12.70;39.53;;;;;;2673351;76;20785;-94
2023/05/11 17:41:19;;;;;;;;;;;12.78;40.49;;;;;;2673418;76;20352;-93
2023/05/11 17:44:47;;;;;;;;;;;12.97;42.23;;;;;;2674147;76;20351;-93
2023/05/11 17:48:16;;;;;;;;;;;13.02;41.42;;;;;;2673303;76;20343;-93
2023/05/11 17:51:45;;;;;;;;;;;12.97;40.04;;;;;;2673782;76;20385;-93
2023/05/11 17:55:13;;;;;;;;;;;13.05;40.94;;;;;;2674009;76;20343;-93
2023/05/11 17:58:44;;;;;;;;;;;13.12;41.07;;;;;;2672762;76;20368;-93
2023/05/11 18:02:12;;;;;;;;;;;13.12;40.36;;;;;;2673061;76;20344;-93
2023/05/11 18:05:40;;;;;;;;;;;13.06;39.83;;;;;;2673730;76;20325;-93
2023/05/11 18:09:27;;;;;;;;;;;12.99;39.11;;;;;;2672803;76;20392;-93
2023/05/11 18:12:45;;;;;;;;;;;12.75;37.79;;;;;;2672733;76;20386;-93
2023/05/11 18:16:13;;;;;;;;;;;12.61;39.71;;;;;;2673468;76;20377;-93
2023/05/11 18:19:41;;;;;;;;;;;12.57;40.65;;;;;;2676334;76;20348;-92
2023/05/11 18:23:10;;;;;;;;;;;12.40;39.80;;;;;;2673819;76;20348;-93
2023/05/11 18:26:38;;;;;;;;;;;12.34;41.04;;;;;;2673023;76;20364;-94
2023/05/11 18:30:06;;;;;;;;;;;12.34;41.36;;;;;;2673970;76;20408;-93
2023/05/11 18:33:34;;;;;;;;;;;12.27;41.33;;;;;;2673357;76;20596;-93
2023/05/11 18:37:02;;;;;;;;;;;12.18;41.45;;;;;;2672074;76;20830;-93
2023/05/11 18:40:35;;;;;;;;;;;12.14;41.74;;;;;;2671271;76;20951;-93
2023/05/11 18:44:01;;;;;;;;;;;12.03;41.67;;;;;;2673260;76;20817;-93
2023/05/11 18:47:29;;;;;;;;;;;11.99;41.60;;;;;;2673353;76;20384;-93
2023/05/11 18:51:00;;;;;;;;;;;11.92;41.45;;;;;;2672397;76;20373;-93
2023/05/11 18:54:27;;;;;;;;;;;11.90;41.78;;;;;;2670322;76;20338;-93
2023/05/11 18:58:00;;;;;;;;;;;11.86;41.16;;;;;;2672056;76;20383;-92
2023/05/11 19:01:30;;;;;;;;;;;11.86;41.57;;;;;;2672764;76;20345;-93
2023/05/11 19:04:58;;;;;;;;;;;11.87;42.45;;;;;;2671629;76;20904;-93
2023/05/11 19:08:30;;;;;;;;;;;11.92;42.78;;;;;;2672083;76;20406;-93
2023/05/11 19:12:10;;;;;;;;;;;11.94;42.81;;;;;;2673999;76;20380;-93
2023/05/11 19:15:41;;;;;;;;;;;11.98;42.87;;;;;;2673319;76;20387;-93
2023/05/11 19:19:12;;;;;;;;;;;12.02;42.81;;;;;;2671503;76;20778;-93
2023/05/11 19:22:40;;;;;;;;;;;12.02;42.77;;;;;;2673281;76;20799;-92
2023/05/11 19:26:08;;;;;;;;;;;12.01;42.77;;;;;;2672341;76;20867;-92
2023/05/11 19:29:37;;;;;;;;;;;12.02;42.84;;;;;;2673189;76;20368;-94
2023/05/11 19:33:07;;;;;;;;;;;12.01;42.61;;;;;;2672808;76;20369;-94
2023/05/11 19:36:40;;;;;;;;;;;12.01;42.37;;;;;;2673751;76;20379;-93
2023/05/11 19:40:15;;;;;;;;;;;12.04;42.49;;;;;;2670725;76;20431;-93
2023/05/11 19:43:55;;;;;;;;;;;12.03;42.20;;;;;;2673426;76;20399;-93
2023/05/11 19:47:10;;;;;;;;;;;12.00;42.02;;;;;;2677978;76;20806;-94
2023/05/11 19:50:40;;;;;;;;;;;11.97;41.95;;;;;;2676223;76;20345;-93
2023/05/11 19:54:12;;;;;;;;;;;11.97;42.64;;;;;;2677071;76;20383;-93
2023/05/11 19:57:40;;;;;;;;;;;12.01;42.82;;;;;;2676501;76;20249;-92
2023/05/11 20:01:08;;;;;;;;;;;12.00;42.88;;;;;;2673576;76;20338;-92
2023/05/11 20:04:36;;;;;;;;;;;12.01;42.81;;;;;;2670842;76;20411;-93
2023/05/11 20:08:05;;;;;;;;;;;11.97;42.97;;;;;;2674020;76;20362;-92
2023/05/11 20:11:33;;;;;;;;;;;11.97;42.87;;;;;;2673239;76;20346;-92
2023/05/11 20:15:01;;;;;;;;;;;11.96;42.98;;;;;;2673890;76;20351;-92
2023/05/11 20:18:29;;;;;;;;;;;11.92;43.10;;;;;;2672538;76;20327;-92
2023/05/11 20:21:57;;;;;;;;;;;11.93;43.29;;;;;;2672999;76;20380;-92
2023/05/11 20:25:25;;;;;;;;;;;11.96;43.41;;;;;;2673409;76;20325;-92
2023/05/11 20:28:53;;;;;;;;;;;11.89;42.71;;;;;;2673445;76;20382;-92